Time;durP1;ratioP1;P1;durP2;ratioP2;P2;SDS_P1;SDS_P2;PMS_P1;PMS_P2;Temp;Humidity;BMP_temperature;BMP_pressure;BME280_temperature;BME280_humidity;BME280_pressure;Samples;Min_cycle;Max_cycle;Signal;HPM_P1;HPM_P2
2021/04/30 00:01:39;;;;;;;43.87;40.17;;;;;;;;;;5097177;28;20186;-82
2021/04/30 00:04:06;;;;;;;49.03;44.83;;;;;;;;;;5097724;28;20428;-85
2021/04/30 00:06:33;;;;;;;51.53;46.93;;;;;;;;;;5097392;28;20426;-84
2021/04/30 00:09:00;;;;;;;50.47;46.30;;;;;;;;;;5096494;28;20440;-84
2021/04/30 00:11:27;;;;;;;51.55;47.08;;;;;;;;;;5097081;28;20439;-83
2021/04/30 00:13:55;;;;;;;56.40;51.22;;;;;;;;;;5096504;28;20187;-85
2021/04/30 00:16:22;;;;;;;56.55;51.55;;;;;;;;;;5096340;27;20249;-83
2021/04/30 00:18:48;;;;;;;55.53;50.53;;;;;;;;;;5096623;28;20540;-83
2021/04/30 00:21:16;;;;;;;46.33;42.47;;;;;;;;;;5096231;28;20444;-83
2021/04/30 00:23:44;;;;;;;53.77;48.87;;;;;;;;;;5095853;28;20498;-83
2021/04/30 00:26:11;;;;;;;54.60;49.50;;;;;;;;;;5096312;28;20447;-83
2021/04/30 00:28:38;;;;;;;54.45;49.53;;;;;;;;;;5096284;28;20445;-83
2021/04/30 00:31:06;;;;;;;55.53;50.60;;;;;;;;;;5095894;28;20706;-82
2021/04/30 00:33:33;;;;;;;57.23;51.97;;;;;;;;;;5095802;28;20906;-83
2021/04/30 00:36:00;;;;;;;57.00;51.60;;;;;;;;;;5095742;28;20437;-83
2021/04/30 00:38:27;;;;;;;53.83;48.67;;;;;;;;;;5095037;28;20789;-83
2021/04/30 00:40:54;;;;;;;54.37;49.47;;;;;;;;;;5096163;28;20194;-83
2021/04/30 00:43:20;;;;;;;58.33;52.97;;;;;;;;;;5095662;28;20440;-83
2021/04/30 00:45:52;;;;;;;53.92;49.35;;;;;;;;;;5095730;28;20265;-83
2021/04/30 00:48:20;;;;;;;53.90;49.23;;;;;;;;;;5096217;28;20262;-83
2021/04/30 00:50:47;;;;;;;56.22;50.67;;;;;;;;;;5095488;28;20902;-83
2021/04/30 00:53:14;;;;;;;54.57;49.87;;;;;;;;;;5095801;28;20197;-83
2021/04/30 00:55:41;;;;;;;54.97;49.90;;;;;;;;;;5095471;28;20459;-83
2021/04/30 00:58:08;;;;;;;49.57;45.47;;;;;;;;;;5095350;28;20491;-82
2021/04/30 01:00:35;;;;;;;53.30;48.40;;;;;;;;;;5095402;28;20405;-83
2021/04/30 01:03:03;;;;;;;54.50;49.63;;;;;;;;;;5095587;28;20201;-83
2021/04/30 01:05:31;;;;;;;48.93;44.80;;;;;;;;;;5095640;28;20222;-83
2021/04/30 01:07:58;;;;;;;54.77;49.63;;;;;;;;;;5095439;28;20425;-83
2021/04/30 01:10:25;;;;;;;56.00;51.15;;;;;;;;;;5094519;28;20433;-83
2021/04/30 01:12:52;;;;;;;55.80;50.05;;;;;;;;;;5094288;28;20609;-83
2021/04/30 01:15:19;;;;;;;53.47;48.20;;;;;;;;;;5095425;28;20220;-83
2021/04/30 01:17:47;;;;;;;49.72;45.20;;;;;;;;;;5095001;28;20499;-83
2021/04/30 01:20:15;;;;;;;50.07;45.27;;;;;;;;;;5095356;28;20183;-83
2021/04/30 01:22:43;;;;;;;53.13;48.10;;;;;;;;;;5095181;28;20432;-81
2021/04/30 01:25:11;;;;;;;53.85;49.10;;;;;;;;;;5094638;28;20237;-83
2021/04/30 01:27:38;;;;;;;49.97;45.73;;;;;;;;;;5094206;28;20209;-83
2021/04/30 01:30:06;;;;;;;55.42;49.95;;;;;;;;;;5095092;28;20486;-83
2021/04/30 01:32:33;;;;;;;57.25;51.35;;;;;;;;;;5094687;28;20193;-83
2021/04/30 01:35:00;;;;;;;61.80;54.22;;;;;;;;;;5095173;28;20189;-83
2021/04/30 01:37:27;;;;;;;53.88;48.47;;;;;;;;;;5094957;28;20574;-83
2021/04/30 01:39:55;;;;;;;57.40;51.30;;;;;;;;;;5094996;28;20525;-83
2021/04/30 01:42:22;;;;;;;57.47;52.10;;;;;;;;;;5095013;28;20190;-83
2021/04/30 01:44:49;;;;;;;59.47;53.22;;;;;;;;;;5094896;28;20209;-83
2021/04/30 01:47:16;;;;;;;58.42;52.30;;;;;;;;;;5094871;28;20226;-83
2021/04/30 01:49:43;;;;;;;56.90;51.20;;;;;;;;;;5094654;28;20202;-83
2021/04/30 01:52:10;;;;;;;55.13;49.70;;;;;;;;;;5095381;28;20448;-83
2021/04/30 01:54:36;;;;;;;51.33;46.50;;;;;;;;;;5094552;28;20502;-83
2021/04/30 01:57:05;;;;;;;54.07;48.60;;;;;;;;;;5094879;28;20458;-83
2021/04/30 01:59:31;;;;;;;52.53;47.53;;;;;;;;;;5094785;28;20435;-84
2021/04/30 02:01:59;;;;;;;49.37;44.90;;;;;;;;;;5094313;28;20489;-83
2021/04/30 02:04:26;;;;;;;51.92;46.80;;;;;;;;;;5094467;28;20893;-83
2021/04/30 02:06:53;;;;;;;49.67;45.30;;;;;;;;;;5094422;28;20673;-84
2021/04/30 02:09:19;;;;;;;54.10;48.72;;;;;;;;;;5094640;28;20473;-85
2021/04/30 02:11:46;;;;;;;55.13;50.03;;;;;;;;;;5094358;28;20191;-84
2021/04/30 02:14:14;;;;;;;51.15;46.38;;;;;;;;;;5094536;28;20195;-83
2021/04/30 02:16:41;;;;;;;54.93;49.77;;;;;;;;;;5094049;28;20256;-84
2021/04/30 02:19:08;;;;;;;56.85;51.30;;;;;;;;;;5094448;28;20433;-84
2021/04/30 02:21:35;;;;;;;56.47;50.93;;;;;;;;;;5093893;28;20213;-84
2021/04/30 02:24:02;;;;;;;59.40;52.92;;;;;;;;;;5094107;28;20510;-83
2021/04/30 02:26:29;;;;;;;61.25;54.95;;;;;;;;;;5094461;28;20187;-84
2021/04/30 02:28:56;;;;;;;62.03;53.78;;;;;;;;;;5094061;28;20194;-84
2021/04/30 02:31:24;;;;;;;61.15;54.58;;;;;;;;;;5093976;28;20188;-84
2021/04/30 02:33:51;;;;;;;60.70;55.05;;;;;;;;;;5094453;28;20191;-84
2021/04/30 02:36:18;;;;;;;60.47;54.30;;;;;;;;;;5094328;28;20187;-84
2021/04/30 02:38:44;;;;;;;68.15;56.10;;;;;;;;;;5094201;28;20448;-83
2021/04/30 02:41:11;;;;;;;69.87;58.60;;;;;;;;;;5093255;28;20255;-84
2021/04/30 02:43:38;;;;;;;61.83;55.72;;;;;;;;;;5094231;28;20440;-84
2021/04/30 02:46:05;;;;;;;72.68;60.13;;;;;;;;;;5094064;28;20222;-83
2021/04/30 02:48:33;;;;;;;63.50;57.07;;;;;;;;;;5094001;28;20256;-84
2021/04/30 02:51:02;;;;;;;64.78;57.65;;;;;;;;;;5093968;28;20439;-83
2021/04/30 02:53:29;;;;;;;63.83;56.83;;;;;;;;;;5093093;28;20205;-83
2021/04/30 02:55:56;;;;;;;89.60;61.00;;;;;;;;;;5094051;28;20443;-83
2021/04/30 02:58:23;;;;;;;58.97;52.73;;;;;;;;;;5093949;28;20222;-83
2021/04/30 03:00:50;;;;;;;57.35;51.40;;;;;;;;;;5095207;28;20820;-83
2021/04/30 03:03:17;;;;;;;51.73;46.87;;;;;;;;;;5097994;28;20190;-83
2021/04/30 03:05:45;;;;;;;49.15;44.88;;;;;;;;;;5097879;28;20419;-82
2021/04/30 03:08:12;;;;;;;49.00;44.53;;;;;;;;;;5097657;28;20244;-83
2021/04/30 03:10:39;;;;;;;51.23;46.57;;;;;;;;;;5097971;28;20434;-83
2021/04/30 03:13:06;;;;;;;53.88;48.35;;;;;;;;;;5097440;28;20513;-83
2021/04/30 03:15:32;;;;;;;59.00;51.97;;;;;;;;;;5097808;28;20240;-83
2021/04/30 03:17:59;;;;;;;56.13;51.03;;;;;;;;;;5098174;28;20881;-84
2021/04/30 03:20:26;;;;;;;52.37;47.63;;;;;;;;;;5097990;28;20198;-83
2021/04/30 03:22:54;;;;;;;57.15;51.55;;;;;;;;;;5097704;28;20439;-83
2021/04/30 03:25:21;;;;;;;55.15;50.15;;;;;;;;;;5097277;28;20237;-83
2021/04/30 03:27:48;;;;;;;56.87;51.13;;;;;;;;;;5096488;28;20194;-83
2021/04/30 03:30:15;;;;;;;61.70;54.97;;;;;;;;;;5097249;28;20987;-84
2021/04/30 03:32:42;;;;;;;58.60;52.60;;;;;;;;;;5097366;28;20448;-84
2021/04/30 03:35:15;;;;;;;56.10;50.70;;;;;;;;;;5096116;28;20448;-83
2021/04/30 03:37:42;;;;;;;54.87;49.80;;;;;;;;;;5096900;28;20481;-84
2021/04/30 03:40:11;;;;;;;56.35;51.25;;;;;;;;;;5097234;28;20822;-84
2021/04/30 03:42:38;;;;;;;58.53;52.63;;;;;;;;;;5097462;28;20187;-83
2021/04/30 03:45:05;;;;;;;56.57;51.20;;;;;;;;;;5096877;28;20194;-83
2021/04/30 03:47:32;;;;;;;56.33;50.57;;;;;;;;;;5097094;28;20423;-83
2021/04/30 03:50:00;;;;;;;56.00;50.60;;;;;;;;;;5097151;28;20452;-83
2021/04/30 03:52:26;;;;;;;55.83;50.43;;;;;;;;;;5097060;28;20444;-83
2021/04/30 03:54:54;;;;;;;54.93;49.77;;;;;;;;;;5096992;28;20827;-83
2021/04/30 03:57:21;;;;;;;52.67;47.47;;;;;;;;;;5095677;28;20476;-83
2021/04/30 03:59:48;;;;;;;53.00;47.90;;;;;;;;;;5095634;28;20960;-83
2021/04/30 04:02:15;;;;;;;53.90;48.73;;;;;;;;;;5096684;28;20415;-84
2021/04/30 04:04:42;;;;;;;55.00;49.13;;;;;;;;;;5096729;28;20509;-84
2021/04/30 04:07:10;;;;;;;51.33;46.23;;;;;;;;;;5096273;28;20420;-83
2021/04/30 04:09:36;;;;;;;52.60;47.50;;;;;;;;;;5096783;28;20411;-83
2021/04/30 04:12:03;;;;;;;57.20;51.33;;;;;;;;;;5096498;28;20432;-83
2021/04/30 04:14:32;;;;;;;53.13;47.90;;;;;;;;;;5096529;28;20406;-83
2021/04/30 04:16:59;;;;;;;49.67;44.97;;;;;;;;;;5096220;28;20472;-83
2021/04/30 04:19:26;;;;;;;51.30;46.40;;;;;;;;;;5096664;28;20511;-82
2021/04/30 04:21:53;;;;;;;51.00;46.00;;;;;;;;;;5096515;28;20437;-83
2021/04/30 04:24:19;;;;;;;53.90;48.30;;;;;;;;;;5096267;28;20475;-83
2021/04/30 04:26:46;;;;;;;50.57;45.80;;;;;;;;;;5096189;28;20194;-83
2021/04/30 04:29:13;;;;;;;57.70;50.35;;;;;;;;;;5096120;28;20441;-83
2021/04/30 04:31:41;;;;;;;52.07;46.83;;;;;;;;;;5095914;28;20625;-83
2021/04/30 04:34:08;;;;;;;51.63;46.63;;;;;;;;;;5095185;28;20443;-83
2021/04/30 04:36:35;;;;;;;55.58;49.50;;;;;;;;;;5095915;28;20272;-84
2021/04/30 04:39:02;;;;;;;52.70;47.40;;;;;;;;;;5096301;28;20186;-83
2021/04/30 04:41:29;;;;;;;54.53;48.93;;;;;;;;;;5096148;28;20436;-83
2021/04/30 04:43:56;;;;;;;54.30;48.83;;;;;;;;;;5095832;28;20433;-85
2021/04/30 04:46:22;;;;;;;53.47;47.87;;;;;;;;;;5096182;28;20564;-85
2021/04/30 04:48:50;;;;;;;52.87;47.40;;;;;;;;;;5100564;28;20542;-84
2021/04/30 04:51:17;;;;;;;52.83;47.37;;;;;;;;;;5096726;28;20433;-85
2021/04/30 04:53:44;;;;;;;53.63;48.27;;;;;;;;;;5094427;28;20431;-86
2021/04/30 04:56:11;;;;;;;54.03;48.30;;;;;;;;;;5095524;28;20482;-83
2021/04/30 04:58:38;;;;;;;56.93;50.80;;;;;;;;;;5095343;28;20483;-84
2021/04/30 05:01:06;;;;;;;54.40;48.33;;;;;;;;;;5094498;28;20434;-86
2021/04/30 05:03:33;;;;;;;54.63;49.37;;;;;;;;;;5094682;28;20617;-86
2021/04/30 05:06:01;;;;;;;55.63;50.00;;;;;;;;;;5095449;28;20980;-85
2021/04/30 05:08:27;;;;;;;54.10;48.27;;;;;;;;;;5094294;28;20441;-83
2021/04/30 05:10:54;;;;;;;55.13;49.30;;;;;;;;;;5095200;28;20436;-83
2021/04/30 05:13:21;;;;;;;57.28;51.60;;;;;;;;;;5094632;28;20436;-84
2021/04/30 05:15:48;;;;;;;56.47;50.70;;;;;;;;;;5094841;28;20217;-83
2021/04/30 05:18:15;;;;;;;58.53;52.57;;;;;;;;;;5094926;27;20457;-83
2021/04/30 05:20:42;;;;;;;57.10;50.90;;;;;;;;;;5095208;28;20918;-83
2021/04/30 05:23:10;;;;;;;56.63;50.97;;;;;;;;;;5095213;28;20437;-83
2021/04/30 05:25:36;;;;;;;62.00;55.30;;;;;;;;;;5094217;28;20825;-83
2021/04/30 05:28:03;;;;;;;56.53;50.20;;;;;;;;;;5095320;28;20439;-83
2021/04/30 05:30:30;;;;;;;58.87;52.57;;;;;;;;;;5094094;28;20925;-83
2021/04/30 05:32:57;;;;;;;58.13;52.22;;;;;;;;;;5095204;28;20844;-83
2021/04/30 05:35:24;;;;;;;56.40;50.40;;;;;;;;;;5095181;28;20197;-83
2021/04/30 05:37:51;;;;;;;55.40;49.87;;;;;;;;;;5095111;28;20534;-86
2021/04/30 05:40:19;;;;;;;59.53;53.30;;;;;;;;;;5094992;28;20444;-83
2021/04/30 05:42:46;;;;;;;55.70;50.13;;;;;;;;;;5094996;28;20466;-84
2021/04/30 05:45:14;;;;;;;56.40;51.00;;;;;;;;;;5094544;28;20838;-84
2021/04/30 05:47:41;;;;;;;60.50;54.10;;;;;;;;;;5091533;28;20457;-75
2021/04/30 05:50:09;;;;;;;58.03;52.60;;;;;;;;;;5093501;28;20445;-76
2021/04/30 05:52:36;;;;;;;55.57;50.37;;;;;;;;;;5092708;28;20452;-74
2021/04/30 05:55:05;;;;;;;55.35;50.00;;;;;;;;;;5093458;28;20447;-83
2021/04/30 05:57:33;;;;;;;53.37;47.97;;;;;;;;;;5094113;28;20576;-81
2021/04/30 05:59:59;;;;;;;53.00;48.20;;;;;;;;;;5093732;28;20467;-80
2021/04/30 06:02:26;;;;;;;51.23;46.47;;;;;;;;;;5093710;28;20465;-89
2021/04/30 06:04:54;;;;;;;54.07;48.90;;;;;;;;;;5093479;28;20441;-82
2021/04/30 06:07:21;;;;;;;49.40;44.90;;;;;;;;;;5093591;28;20440;-81
2021/04/30 06:09:47;;;;;;;49.13;44.80;;;;;;;;;;5093628;28;20440;-82
2021/04/30 06:12:14;;;;;;;48.10;43.80;;;;;;;;;;5093884;28;20489;-81
2021/04/30 06:14:42;;;;;;;49.87;45.17;;;;;;;;;;5093393;28;20464;-81
2021/04/30 06:17:09;;;;;;;47.53;43.33;;;;;;;;;;5093714;28;20480;-82
2021/04/30 06:19:36;;;;;;;48.87;44.47;;;;;;;;;;5093872;28;20451;-81
2021/04/30 06:22:03;;;;;;;49.97;45.43;;;;;;;;;;5093316;28;20444;-81
2021/04/30 06:24:30;;;;;;;50.53;46.03;;;;;;;;;;5093180;28;20475;-81
2021/04/30 06:26:57;;;;;;;48.00;43.77;;;;;;;;;;5093424;28;20445;-83
2021/04/30 06:29:24;;;;;;;50.77;46.07;;;;;;;;;;5093720;28;20423;-82
2021/04/30 06:31:52;;;;;;;46.87;42.83;;;;;;;;;;5093332;28;20444;-83
2021/04/30 06:34:19;;;;;;;46.40;42.60;;;;;;;;;;5093777;28;20433;-83
2021/04/30 06:36:45;;;;;;;46.93;42.83;;;;;;;;;;5095342;28;20448;-82
2021/04/30 06:39:12;;;;;;;48.40;44.10;;;;;;;;;;5097834;28;20417;-79
2021/04/30 06:41:40;;;;;;;48.07;43.83;;;;;;;;;;5097897;28;20443;-78
2021/04/30 06:44:07;;;;;;;46.27;42.27;;;;;;;;;;5097167;28;20458;-77
2021/04/30 06:46:34;;;;;;;45.17;41.23;;;;;;;;;;5097253;28;20429;-80
2021/04/30 06:49:02;;;;;;;45.33;41.43;;;;;;;;;;5098155;28;20417;-82
2021/04/30 06:51:28;;;;;;;43.40;39.63;;;;;;;;;;5097934;28;20801;-83
2021/04/30 06:53:55;;;;;;;45.13;41.17;;;;;;;;;;5097417;28;20501;-79
2021/04/30 06:56:25;;;;;;;47.47;43.27;;;;;;;;;;5097442;28;20439;-78
2021/04/30 06:58:52;;;;;;;49.50;44.80;;;;;;;;;;5097600;28;20465;-79
2021/04/30 07:01:19;;;;;;;48.63;44.27;;;;;;;;;;5097194;28;20425;-79
2021/04/30 07:03:46;;;;;;;42.67;39.10;;;;;;;;;;5097152;28;20460;-78
2021/04/30 07:06:14;;;;;;;49.20;44.80;;;;;;;;;;5097131;28;20440;-78
2021/04/30 07:08:41;;;;;;;49.93;45.43;;;;;;;;;;5097125;28;20421;-78
2021/04/30 07:11:08;;;;;;;50.10;45.37;;;;;;;;;;5097153;28;20901;-78
2021/04/30 07:13:35;;;;;;;49.70;45.17;;;;;;;;;;5097392;28;20407;-79
2021/04/30 07:16:02;;;;;;;49.97;45.53;;;;;;;;;;5097260;28;20458;-78
2021/04/30 07:18:29;;;;;;;47.60;43.00;;;;;;;;;;5096891;28;20481;-77
2021/04/30 07:20:56;;;;;;;49.00;44.40;;;;;;;;;;5097126;28;20448;-78
2021/04/30 07:23:24;;;;;;;49.43;45.07;;;;;;;;;;5097177;28;20444;-80
2021/04/30 07:25:51;;;;;;;48.53;44.23;;;;;;;;;;5096625;28;20763;-80
2021/04/30 07:28:18;;;;;;;51.57;46.87;;;;;;;;;;5097896;28;20415;-80
2021/04/30 07:30:45;;;;;;;64.63;57.53;;;;;;;;;;5096666;28;20448;-80
2021/04/30 07:33:12;;;;;;;76.07;69.13;;;;;;;;;;5096505;28;20957;-80
2021/04/30 07:35:39;;;;;;;47.87;43.47;;;;;;;;;;5096814;28;20422;-80
2021/04/30 07:38:06;;;;;;;94.80;86.30;;;;;;;;;;5095366;28;20854;-80
2021/04/30 07:40:35;;;;;;;51.60;47.00;;;;;;;;;;5096827;28;20420;-80
2021/04/30 07:43:02;;;;;;;57.10;52.33;;;;;;;;;;5096743;28;20415;-80
2021/04/30 07:45:29;;;;;;;53.03;48.33;;;;;;;;;;5096552;28;20442;-79
2021/04/30 07:47:56;;;;;;;51.23;46.73;;;;;;;;;;5094645;28;20406;-80
2021/04/30 07:50:23;;;;;;;45.90;41.80;;;;;;;;;;5096588;28;20504;-78
2021/04/30 07:52:50;;;;;;;51.33;46.83;;;;;;;;;;5096845;28;20416;-78
2021/04/30 07:55:18;;;;;;;52.33;47.87;;;;;;;;;;5096435;28;20412;-78
2021/04/30 07:57:47;;;;;;;57.13;51.93;;;;;;;;;;5096397;28;20472;-78
2021/04/30 08:00:14;;;;;;;51.43;46.93;;;;;;;;;;5096436;28;20444;-79
2021/04/30 08:02:41;;;;;;;51.17;46.33;;;;;;;;;;5095871;28;20547;-80
2021/04/30 08:05:09;;;;;;;49.33;45.03;;;;;;;;;;5096236;28;20436;-80
2021/04/30 08:07:36;;;;;;;45.77;41.67;;;;;;;;;;5096295;28;20440;-79
2021/04/30 08:10:04;;;;;;;66.33;60.53;;;;;;;;;;5094746;28;20476;-78
2021/04/30 08:12:31;;;;;;;52.77;47.93;;;;;;;;;;5096133;28;20434;-78
2021/04/30 08:14:59;;;;;;;48.40;44.30;;;;;;;;;;5096146;28;20486;-79
2021/04/30 08:17:28;;;;;;;45.07;41.27;;;;;;;;;;5096113;28;20485;-78
2021/04/30 08:19:58;;;;;;;49.13;44.90;;;;;;;;;;5096050;28;20408;-79
2021/04/30 08:22:25;;;;;;;61.40;56.30;;;;;;;;;;5096040;28;20449;-79
2021/04/30 08:24:52;;;;;;;47.07;42.73;;;;;;;;;;5095587;28;21019;-80
2021/04/30 08:27:20;;;;;;;48.47;44.37;;;;;;;;;;5096027;28;20933;-79
2021/04/30 08:29:47;;;;;;;48.80;44.60;;;;;;;;;;5095608;28;20456;-82
2021/04/30 08:32:18;;;;;;;44.00;40.33;;;;;;;;;;5095746;28;20439;-80
2021/04/30 08:34:45;;;;;;;44.10;40.30;;;;;;;;;;5095188;28;20430;-81
2021/04/30 08:37:11;;;;;;;46.07;42.37;;;;;;;;;;5096019;28;20451;-80
2021/04/30 08:39:38;;;;;;;51.33;46.47;;;;;;;;;;5096210;28;20432;-87
2021/04/30 08:42:06;;;;;;;50.40;45.77;;;;;;;;;;5098274;28;20432;-86
2021/04/30 08:44:33;;;;;;;48.50;44.23;;;;;;;;;;5097772;28;20438;-86
2021/04/30 08:47:00;;;;;;;52.40;47.67;;;;;;;;;;5097563;28;20441;-87
2021/04/30 08:49:28;;;;;;;59.47;54.20;;;;;;;;;;5098111;28;20400;-86
2021/04/30 08:51:55;;;;;;;46.63;42.57;;;;;;;;;;5097481;28;20416;-85
2021/04/30 08:54:22;;;;;;;47.90;43.40;;;;;;;;;;5095510;28;20449;-85
2021/04/30 08:56:51;;;;;;;49.27;44.73;;;;;;;;;;5096394;28;20480;-87
2021/04/30 08:59:22;;;;;;;59.13;53.80;;;;;;;;;;5095593;28;20830;-87
2021/04/30 09:01:49;;;;;;;47.20;43.00;;;;;;;;;;5096016;28;20415;-83
2021/04/30 09:04:16;;;;;;;45.00;41.20;;;;;;;;;;5095898;28;20773;-88
2021/04/30 09:06:45;;;;;;;47.97;43.63;;;;;;;;;;5094431;28;20416;-86
2021/04/30 09:09:12;;;;;;;48.03;43.80;;;;;;;;;;5095398;28;20416;-78
2021/04/30 09:11:40;;;;;;;50.00;45.60;;;;;;;;;;5094008;28;20448;-79
2021/04/30 09:14:19;;;;;;;85.80;78.00;;;;;;;;;;5094919;28;20407;-90
2021/04/30 09:17:03;;;;;;;62.17;56.67;;;;;;;;;;5096951;28;20456;-90
2021/04/30 09:19:30;;;;;;;49.07;44.80;;;;;;;;;;5099247;28;20432;-86
2021/04/30 09:22:02;;;;;;;49.20;44.57;;;;;;;;;;5101140;28;20416;-83
2021/04/30 09:24:30;;;;;;;48.23;43.77;;;;;;;;;;5096421;28;20476;-86
2021/04/30 09:26:58;;;;;;;76.10;69.43;;;;;;;;;;5098865;28;20423;-92
2021/04/30 09:29:26;;;;;;;68.00;62.20;;;;;;;;;;5106275;28;20521;-94
2021/04/30 09:31:54;;;;;;;70.97;64.47;;;;;;;;;;5104042;28;20434;-79
2021/04/30 09:34:24;;;;;;;46.13;42.23;;;;;;;;;;5102385;28;20452;-83
2021/04/30 09:36:55;;;;;;;58.80;53.63;;;;;;;;;;5105096;28;20475;-83
2021/04/30 09:39:30;;;;;;;48.27;44.07;;;;;;;;;;5105821;28;20434;-82
2021/04/30 09:42:07;;;;;;;48.10;43.60;;;;;;;;;;5110625;28;20415;-81
2021/04/30 09:44:35;;;;;;;48.30;44.03;;;;;;;;;;5110201;28;20447;-81
2021/04/30 09:47:15;;;;;;;70.07;63.27;;;;;;;;;;5109709;28;20452;-79
2021/04/30 09:49:42;;;;;;;61.27;55.63;;;;;;;;;;5113405;28;20403;-78
2021/04/30 09:52:09;;;;;;;58.30;53.10;;;;;;;;;;5117616;28;20422;-81
2021/04/30 09:54:38;;;;;;;97.33;87.90;;;;;;;;;;5118944;28;20429;-83
2021/04/30 09:57:09;;;;;;;61.23;54.63;;;;;;;;;;5115887;28;20429;-81
2021/04/30 09:59:37;;;;;;;349.07;313.30;;;;;;;;;;5104717;28;20408;-82
2021/04/30 10:02:09;;;;;;;46.13;42.20;;;;;;;;;;5102868;28;20437;-81
2021/04/30 10:04:36;;;;;;;44.63;40.47;;;;;;;;;;5105208;28;20429;-78
2021/04/30 10:07:04;;;;;;;44.77;40.80;;;;;;;;;;5103869;28;20448;-80
2021/04/30 10:09:32;;;;;;;44.87;41.07;;;;;;;;;;5099912;28;20406;-80
2021/04/30 10:12:00;;;;;;;50.30;45.77;;;;;;;;;;5101962;28;20407;-81
2021/04/30 10:14:27;;;;;;;48.60;44.33;;;;;;;;;;5103163;28;20529;-78
2021/04/30 10:16:54;;;;;;;54.43;49.60;;;;;;;;;;5103014;28;20934;-81
2021/04/30 10:19:40;;;;;;;48.53;44.17;;;;;;;;;;5104576;28;20411;-80
2021/04/30 10:22:07;;;;;;;47.37;43.30;;;;;;;;;;5104935;28;20794;-80
2021/04/30 10:24:35;;;;;;;46.27;42.17;;;;;;;;;;5102848;28;20480;-80
2021/04/30 10:27:02;;;;;;;51.10;46.60;;;;;;;;;;5104441;28;20411;-80
2021/04/30 10:29:31;;;;;;;65.27;59.37;;;;;;;;;;5108266;28;20419;-80
2021/04/30 10:32:00;;;;;;;56.87;51.77;;;;;;;;;;5109117;28;20444;-80
2021/04/30 10:34:28;;;;;;;49.63;45.23;;;;;;;;;;5103098;28;20410;-76
2021/04/30 10:36:56;;;;;;;47.10;42.50;;;;;;;;;;5102096;28;20424;-80
2021/04/30 10:39:27;;;;;;;48.47;44.00;;;;;;;;;;5103829;28;20416;-80
2021/04/30 10:41:54;;;;;;;47.67;43.57;;;;;;;;;;5103743;28;20421;-80
2021/04/30 10:44:23;;;;;;;49.50;45.00;;;;;;;;;;5103667;28;20514;-80
2021/04/30 10:46:51;;;;;;;51.70;46.87;;;;;;;;;;5102702;28;20869;-83
2021/04/30 10:49:20;;;;;;;54.90;49.10;;;;;;;;;;5105317;28;20425;-80
2021/04/30 10:52:06;;;;;;;55.10;49.87;;;;;;;;;;5106819;28;20441;-83
2021/04/30 10:54:34;;;;;;;54.60;49.50;;;;;;;;;;5106589;28;20407;-81
2021/04/30 10:57:02;;;;;;;58.47;52.97;;;;;;;;;;5110310;28;20437;-82
2021/04/30 10:59:42;;;;;;;55.67;50.37;;;;;;;;;;5103542;28;20460;-75
2021/04/30 11:02:10;;;;;;;54.37;49.30;;;;;;;;;;5103941;28;20433;-81
2021/04/30 11:04:37;;;;;;;53.73;48.87;;;;;;;;;;5098644;28;20412;-82
2021/04/30 11:07:06;;;;;;;59.37;53.83;;;;;;;;;;5097888;28;20520;-81
2021/04/30 11:09:37;;;;;;;75.17;68.07;;;;;;;;;;5098871;28;20437;-81
2021/04/30 11:12:19;;;;;;;48.27;44.03;;;;;;;;;;5097309;28;20441;-81
2021/04/30 11:14:57;;;;;;;52.83;47.80;;;;;;;;;;5096281;28;20884;-82
2021/04/30 11:17:39;;;;;;;49.00;44.77;;;;;;;;;;5094160;28;20458;-80
2021/04/30 11:20:12;;;;;;;54.67;49.87;;;;;;;;;;5084954;28;20514;-80
2021/04/30 11:22:39;;;;;;;52.10;47.20;;;;;;;;;;5095588;28;20458;-80
2021/04/30 11:25:15;;;;;;;50.50;45.80;;;;;;;;;;5100648;28;20459;-80
2021/04/30 11:27:54;;;;;;;51.47;46.37;;;;;;;;;;5098454;28;20411;-81
2021/04/30 11:30:31;;;;;;;52.10;47.30;;;;;;;;;;5100647;28;20450;-81
2021/04/30 11:32:59;;;;;;;54.33;49.10;;;;;;;;;;5108843;28;20440;-81
2021/04/30 11:35:28;;;;;;;52.67;47.37;;;;;;;;;;5102434;28;20528;-80
2021/04/30 11:37:55;;;;;;;53.50;48.43;;;;;;;;;;5101623;28;20484;-81
2021/04/30 11:40:23;;;;;;;51.70;46.90;;;;;;;;;;5100737;28;20807;-81
2021/04/30 11:43:06;;;;;;;52.37;47.47;;;;;;;;;;5099969;28;20435;-82
2021/04/30 11:45:34;;;;;;;52.63;47.77;;;;;;;;;;5095920;28;20422;-81
2021/04/30 11:48:04;;;;;;;52.03;47.30;;;;;;;;;;5101170;28;20444;-79
2021/04/30 11:50:33;;;;;;;55.00;49.60;;;;;;;;;;5102021;28;20467;-78
2021/04/30 11:53:00;;;;;;;66.73;60.60;;;;;;;;;;5104713;28;20485;-77
2021/04/30 11:55:27;;;;;;;64.27;57.90;;;;;;;;;;5101629;28;20457;-75
2021/04/30 11:57:55;;;;;;;69.20;62.70;;;;;;;;;;5102655;28;20480;-83
2021/04/30 12:00:23;;;;;;;62.20;56.07;;;;;;;;;;5113045;28;20433;-77
2021/04/30 12:03:06;;;;;;;129.53;102.70;;;;;;;;;;5115124;28;20433;-80
2021/04/30 12:05:34;;;;;;;56.20;50.17;;;;;;;;;;5116275;28;20426;-80
2021/04/30 12:08:01;;;;;;;60.00;53.97;;;;;;;;;;5116467;28;20455;-82
2021/04/30 12:10:32;;;;;;;59.00;53.20;;;;;;;;;;5114364;28;20436;-91
2021/04/30 12:13:02;;;;;;;55.73;49.93;;;;;;;;;;5114400;28;20476;-91
2021/04/30 12:15:33;;;;;;;56.33;50.57;;;;;;;;;;5118590;28;20396;-91
2021/04/30 12:18:01;;;;;;;56.03;50.33;;;;;;;;;;5117205;28;20468;-89
2021/04/30 12:20:36;;;;;;;268.17;225.33;;;;;;;;;;5117848;28;20480;-91
2021/04/30 12:23:11;;;;;;;54.23;48.73;;;;;;;;;;5118027;28;20431;-91
2021/04/30 12:25:40;;;;;;;58.37;52.33;;;;;;;;;;5118748;28;20467;-91
2021/04/30 12:28:22;;;;;;;59.57;53.87;;;;;;;;;;5117630;28;20594;-91
2021/04/30 12:30:51;;;;;;;58.37;49.87;;;;;;;;;;5116763;28;20422;-92
2021/04/30 12:33:22;;;;;;;55.97;49.93;;;;;;;;;;5116044;28;20438;-91
2021/04/30 12:35:50;;;;;;;58.23;52.23;;;;;;;;;;5106932;22;20456;-92
2021/04/30 12:38:18;;;;;;;64.83;52.90;;;;;;;;;;5185633;23;20467;-93
2021/04/30 12:40:46;;;;;;;62.07;52.40;;;;;;;;;;5116212;28;20427;-92
2021/04/30 12:43:14;;;;;;;57.50;51.40;;;;;;;;;;5091827;28;21035;-92
2021/04/30 12:45:41;;;;;;;61.60;55.30;;;;;;;;;;5103405;28;20416;-92
2021/04/30 12:48:10;;;;;;;63.93;57.40;;;;;;;;;;5103202;28;20424;-82
2021/04/30 12:50:37;;;;;;;59.47;53.17;;;;;;;;;;5105341;28;20470;-91
2021/04/30 12:53:06;;;;;;;65.43;58.47;;;;;;;;;;5094218;28;20427;-91
2021/04/30 12:55:33;;;;;;;61.90;51.00;;;;;;;;;;5087369;28;20417;-92
2021/04/30 12:58:04;;;;;;;60.67;50.80;;;;;;;;;;5107106;28;20480;-92
2021/04/30 13:00:31;;;;;;;65.20;58.10;;;;;;;;;;5107975;28;20464;-92
2021/04/30 13:02:58;;;;;;;69.37;61.17;;;;;;;;;;5108031;28;20419;-93
2021/04/30 13:05:26;;;;;;;61.47;54.93;;;;;;;;;;5099324;28;20410;-92
2021/04/30 13:07:54;;;;;;;57.87;52.13;;;;;;;;;;5102176;28;20459;-92
2021/04/30 13:10:31;;;;;;;57.03;51.50;;;;;;;;;;5100448;28;20418;-92
2021/04/30 13:13:02;;;;;;;61.00;54.93;;;;;;;;;;5099070;28;20427;-92
2021/04/30 13:15:29;;;;;;;60.57;54.00;;;;;;;;;;5102613;28;20408;-92
2021/04/30 13:17:57;;;;;;;56.47;50.57;;;;;;;;;;5094996;28;20466;-92
2021/04/30 13:20:27;;;;;;;120.43;105.93;;;;;;;;;;5087848;28;20427;-93
2021/04/30 13:23:01;;;;;;;59.50;53.03;;;;;;;;;;5072312;28;20427;-92
2021/04/30 13:25:33;;;;;;;61.47;54.97;;;;;;;;;;5069787;28;20424;-91
2021/04/30 13:28:00;;;;;;;59.97;53.47;;;;;;;;;;5081958;28;21121;-90
2021/04/30 13:30:34;;;;;;;57.10;50.37;;;;;;;;;;5094870;28;20437;-92
2021/04/30 13:33:17;;;;;;;62.93;55.93;;;;;;;;;;5097350;28;20435;-92
2021/04/30 13:35:44;;;;;;;67.40;60.40;;;;;;;;;;5084411;28;20892;-91
2021/04/30 13:38:13;;;;;;;52.93;47.50;;;;;;;;;;5077537;28;21059;-92
2021/04/30 13:40:41;;;;;;;54.63;49.23;;;;;;;;;;5058636;28;20482;-93
2021/04/30 13:43:08;;;;;;;57.20;51.10;;;;;;;;;;5075116;28;20489;-92
2021/04/30 13:45:35;;;;;;;56.23;49.63;;;;;;;;;;5074463;28;20788;-92
2021/04/30 13:48:03;;;;;;;56.83;50.73;;;;;;;;;;5075274;28;20417;-92
2021/04/30 13:50:31;;;;;;;61.80;53.00;;;;;;;;;;5076182;28;20420;-91
2021/04/30 13:52:58;;;;;;;61.70;53.80;;;;;;;;;;5077271;28;20420;-92
2021/04/30 13:55:26;;;;;;;51.10;45.80;;;;;;;;;;5077019;28;20798;-92
2021/04/30 13:57:54;;;;;;;57.23;51.10;;;;;;;;;;5058990;28;20452;-92
2021/04/30 14:00:23;;;;;;;54.63;49.17;;;;;;;;;;5078368;28;20472;-92
2021/04/30 14:02:50;;;;;;;61.10;52.40;;;;;;;;;;5085595;28;20480;-90
2021/04/30 14:05:19;;;;;;;56.53;50.73;;;;;;;;;;5067925;28;20934;-91
2021/04/30 14:07:46;;;;;;;53.73;48.50;;;;;;;;;;5078517;28;20411;-91
2021/04/30 14:10:13;;;;;;;54.50;48.60;;;;;;;;;;5075939;28;20433;-91
2021/04/30 14:12:40;;;;;;;56.10;50.03;;;;;;;;;;5076359;28;20445;-91
2021/04/30 14:15:09;;;;;;;58.47;52.50;;;;;;;;;;5075094;28;20765;-91
2021/04/30 14:17:37;;;;;;;56.77;50.77;;;;;;;;;;5075098;28;20443;-92
2021/04/30 14:20:04;;;;;;;55.43;49.27;;;;;;;;;;5074892;28;20446;-91
2021/04/30 14:22:31;;;;;;;56.70;50.80;;;;;;;;;;5057322;28;20417;-91